Aeroporto :
LOGIN :

Iscrizione | Disclaimer

   EN    FR    IT 

 










Sommario :    VFR   VFR Marginale   IFR   IFR Intensivo   IFR Molto Intensivo
Visibilità : 
Base nubi : 
>= 8 km
>= 3000ft
5 / 8 km
1000 / 3000 ft
1500m / 5 km
500 / 1000 ft
800 / 1500m
200 / 500 ft
< 800m
< 200 ft
Simboli :   Temporali  Nebbia  Neve Forte  Precipitazioni Forti  Vento > 20 kt
SIGMETs :   Varie  Temporali  Ghiacco  Turbolenza  Onda orograficha  Ceneri Vulcaniche






- Altitudine del aeroporto : 141 ft
- Codice IATA : SKS


EKSP - Srydstrup Vojens

ULTIMO METAR :
  • 211350Z 05008KT 2500 -DZ OVC003 05/05 Q1012 TEMPO 3000 BKN005

METARs OBSOLETI :
  • 211328Z 05006KT 020V080 2000 -DZ BKN003 05/04 Q1012 TEMPO 3000 BKN005
  • 211312Z 04006KT 2500 -DZ SCT002 BKN004 05/04 Q1012 TEMPO 2000 BKN006
  • 211250Z 04006KT 010V070 2500 -DZ SCT003 BKN008 04/04 Q1013 TEMPO 2000 BKN004
  • 211235Z 05005KT 020V080 2500 -DZ BKN005 BKN008 04/04 Q1013 BECMG BKN006
  • 211224Z 06005KT 3000 -DZ FEW004 BKN012 04/04 Q1013 BECMG BKN006
  • 211209Z 07006KT 4000 -DZ FEW011 BKN017 BKN022 04/03 Q1013 BECMG BKN008
  • 211201Z 07007KT 5000 -DZ FEW016 BKN022 05/03 Q1013 BECMG BKN008
  • 211157Z 07007KT 6000 FEW016 BKN022 05/03 Q1013 BECMG 5000 BR BKN008
  • 211120Z VRB03KT 9999 BKN024 05/03 Q1014 BECMG 5000 BR BKN010

TAF AMD TAF EKSP
Valido dal 21 a 12 ore il 22 a 12 ore UTC


211214Z 2112/2212 06006KT 4000 BR BKN015
BECMG 2112/2114 2500 -RA BKN006
BECMG 2114/2116 1800 -RADZ BR BKN003
TEMPO 2116/2208 1200 BKN001
BECMG 2208/2210 16010KT 8000 NSW BKN020



MetMap, La meteo Aeronautica in un colpo d'occhio ! - Copyright ORBIFLY Dicembre 2007 - Disclaimer

ORBIFLY MET'MAP TEAM :

Programmazione e sviluppo : Alexandra Zaïnal
Concezione e sviluppo : Baudouin d'Aumeries
Co-Programmazione e sviluppo : Marc-Olivier Méhu
Supporto tecnico e logistico : Manuel Goepfert
Aiuto per la traduzione : Arnaldo La Scala

Contatto : metmap@orbifly.com




FONTI E CREDITI :

   NOAA